Search for airport 
image banner adimage banner adimage banner ad
image banner ad

KAPC - Napa County

Located in Napa, United States

ICAO - APC, IATA - APC

Data provided by Airmate  

General information

Coordinates: N38°12'47" W122°16'50"
Elevation is 36 feet MSL.
Magnetic variation is 15° East
View others Airports in California

Operational data

Special qualification required
Current time UTC:
Current local time:
Weather
METAR: KAPC 211154Z AUTO 28010KT 10SM CLR 13/11 A2988 RMK AO2 SLP110 T01280111 10144 20128 51001
TAF: KAPC 211139Z 2112/2212 27009KT P6SM SKC FM211600 21012KT P6SM SKC FM220500 26008KT P6SM SKC
View NOTAMs / SUP AIP / TFR affecting this airport [VIEW]
Communications frequencies: [VIEW]

Runways:

RWY identifierQFULength (ft)Width (ft)SurfaceLDA (ft)
0677°5008150CONC
24257°5008150CONC
01L21°5930150ASPH
19R201°5930150ASPH
01R21°251075ASPH
19L201°251075ASPH

Airport contact information

Address: Napa United States

Other aviation service providers

Flight schools

Napa Jet Center

Napa Jet Center

Satellite view of KAPC